Latest Weather Observations for Pallamana

IDS60901

Issued at 2:21 pm CST Thursday 28 July 2016 (issued every 10 minutes, with the page automatically refreshed every 10 minutes)

About weather observations | Map of Adelaide area stations | Latest observations for Adelaide area | Other Formats
Station Details ID: 024584 Name: PALLAMANA AERODROME Lat: -35.06 Lon: 139.23 Height: 45.0 m
Data from the previous 72 hours. | See also: Recent months at Pallamana
Date/Time
CST
Temp
°C
App
Temp
°C
Dew
Point
°C
Rel
Hum
%
Delta-T
°C
Wind Press
QNH
hPa
Press
MSL
hPa
Rain since
9am
mm
Dir  Spd
km/h
Gust
km/h
Spd
kts
Gust
kts
28/02:00pm 13.6 9.0 6.5 62 3.4 W 20 28 11 15 1027.0 1027.1 0.0
28/01:30pm 13.9 10.2 6.4 60 3.6 NW 15 20 8 11 1027.2 1027.3 0.0
28/01:00pm 13.9 10.3 6.9 62 3.4 W 15 19 8 10 1027.5 1027.6 0.0
28/12:30pm 13.6 9.6 6.5 62 3.4 WNW 17 24 9 13 1027.8 1027.9 0.0
28/12:00pm 13.4 10.6 7.0 65 3.1 W 11 15 6 8 1028.2 1028.3 0.0
28/11:30am 13.4 9.7 6.5 63 3.3 WNW 15 24 8 13 1028.7 1028.8 0.0
28/11:00am 13.0 9.5 7.0 67 2.9 W 15 20 8 11 1029.1 1029.2 0.0
28/10:30am 12.6 10.4 7.9 73 2.3 NW 9 11 5 6 1029.2 1029.3 0.0
28/10:00am 12.1 10.5 8.7 80 1.7 NNW 7 11 4 6 1029.3 1029.4 0.0
28/09:30am 11.9 10.3 8.9 82 1.5 NW 7 13 4 7 1029.2 1029.3 0.0
28/09:00am 11.3 9.4 9.1 86 1.1 NW 9 11 5 6 1029.0 1029.1 0.0
28/08:30am 10.5 8.9 8.7 89 0.9 NW 7 9 4 5 1029.0 1029.1 0.0
28/08:00am 9.9 8.2 8.5 91 0.7 WNW 7 9 4 5 1028.7 1028.8 0.0
28/07:30am 9.4 7.6 8.1 92 0.6 NW 7 9 4 5 1028.3 1028.4 0.0
28/07:00am 9.6 7.8 8.1 90 0.7 NW 7 11 4 6 1028.0 1028.1 0.0
28/06:30am 9.9 7.7 8.0 88 0.9 WNW 9 11 5 6 1027.8 1027.9 0.0
28/06:00am 9.4 7.5 7.5 88 0.9 WNW 7 9 4 5 1027.7 1027.8 0.0
28/05:30am 8.8 7.0 7.3 90 0.7 WNW 6 9 3 5 1027.4 1027.5 0.0
28/05:00am 8.7 7.7 7.2 90 0.7 WSW 2 7 1 4 1027.2 1027.3 0.0
28/04:30am 9.0 7.0 7.1 88 0.9 NW 7 7 4 4 1027.1 1027.2 0.0
28/04:00am 9.1 7.1 7.2 88 0.9 W 7 9 4 5 1027.1 1027.2 0.0
28/03:30am 9.3 6.9 7.2 87 1.0 NNW 9 11 5 6 1027.1 1027.2 0.0
28/03:00am 9.3 6.9 7.2 87 1.0 NNW 9 11 5 6 1027.1 1027.2 0.0
28/02:30am 9.6 7.2 7.0 84 1.2 NNW 9 13 5 7 1027.3 1027.4 0.0
28/02:00am 9.4 7.1 7.3 87 1.0 NW 9 11 5 6 1027.4 1027.5 0.0
28/01:30am 9.2 6.9 7.3 88 0.9 NNW 9 11 5 6 1027.2 1027.3 0.0
28/01:00am 9.3 7.0 7.4 88 0.9 NW 9 11 5 6 1027.3 1027.4 0.0
28/12:30am 9.3 8.8 7.8 90 0.7 CALM 0 0 0 0 1027.0 1027.1 0.0
28/12:00am 9.7 8.3 7.4 85 1.1 W 4 6 2 3 1027.0 1027.1 0.0
 
Date/Time
CST
Temp
°C
App
Temp
°C
Dew
Point
°C
Rel
Hum
%
Delta-T
°C
Wind Press
QNH
hPa
Press
MSL
hPa
Rain since
9am
mm
Dir  Spd
km/h
Gust
km/h
Spd
kts
Gust
kts
27/11:30pm 10.0 8.3 7.5 84 1.2 WNW 6 7 3 4 1027.2 1027.3 0.0
27/11:00pm 10.3 8.3 7.3 82 1.4 W 7 9 4 5 1027.2 1027.3 0.0
27/10:30pm 11.2 8.0 7.0 75 2.0 WNW 13 19 7 10 1027.2 1027.3 0.0
27/10:00pm 10.7 8.6 6.6 76 1.9 W 7 9 4 5 1027.2 1027.3 0.0
27/09:30pm 10.5 8.0 6.7 77 1.8 WNW 9 13 5 7 1027.3 1027.4 0.0
27/09:00pm 11.1 7.8 6.4 73 2.2 WNW 13 17 7 9 1027.4 1027.5 0.0
27/08:30pm 9.5 7.1 6.9 84 1.2 NW 9 9 5 5 1027.3 1027.4 0.0
27/08:00pm 9.8 7.8 7.3 84 1.2 WNW 7 7 4 4 1027.1 1027.2 0.0
27/07:30pm 10.2 7.6 6.3 77 1.8 WNW 9 11 5 6 1027.0 1027.1 0.0
27/07:00pm 10.3 7.6 5.7 73 2.1 WNW 9 11 5 6 1026.9 1027.0 0.0
27/06:30pm 10.8 8.5 5.6 70 2.4 WNW 7 9 4 5 1026.5 1026.6 0.0
27/06:00pm 11.2 8.9 5.5 68 2.6 W 7 11 4 6 1026.2 1026.3 0.0
27/05:30pm 11.3 7.7 5.2 66 2.8 W 13 17 7 9 1025.7 1025.8 0.0
27/05:00pm 12.2 7.7 4.2 58 3.6 W 17 24 9 13 1025.5 1025.6 0.0
27/04:30pm 12.8 7.5 5.0 59 3.6 W 22 32 12 17 1025.3 1025.4 0.0
27/04:00pm 13.5 7.8 5.1 57 3.9 WSW 24 32 13 17 1025.0 1025.1 0.0
27/03:30pm 13.4 8.6 4.7 55 4.0 W 19 30 10 16 1024.8 1024.9 0.0
27/03:00pm 12.7 8.4 6.9 68 2.8 SW 19 22 10 12 1024.6 1024.7 0.0
27/02:30pm 13.5 8.4 6.1 61 3.5 WSW 22 30 12 16 1024.1 1024.2 0.0
27/02:00pm 13.6 8.0 5.2 57 3.9 SW 24 32 13 17 1023.6 1023.7 0.0
27/01:30pm 14.1 8.9 5.4 56 4.1 WSW 22 28 12 15 1023.4 1023.5 0.0
27/01:00pm 14.2 8.3 6.0 58 3.9 WSW 26 37 14 20 1023.4 1023.5 0.0
27/12:30pm 14.0 7.8 6.3 60 3.7 SW 28 35 15 19 1023.7 1023.8 0.0
27/12:00pm 14.0 7.9 5.0 54 4.2 WSW 26 33 14 18 1023.4 1023.5 0.0
27/11:30am 13.2 7.1 4.7 56 3.9 SW 26 33 14 18 1023.3 1023.4 0.0
27/11:00am 13.4 7.9 4.2 53 4.2 WSW 22 32 12 17 1023.4 1023.5 0.0
27/10:30am 12.3 6.7 5.6 63 3.1 SW 24 30 13 16 1023.2 1023.3 0.0
27/10:00am 12.0 7.5 6.3 68 2.7 SW 19 26 10 14 1022.6 1022.7 0.0
27/09:30am 11.2 6.7 6.3 72 2.3 SW 19 22 10 12 1022.4 1022.5 0.0
27/09:00am 10.7 6.0 5.9 72 2.2 WSW 20 26 11 14 1022.0 1022.1 3.0
27/08:30am 10.5 6.4 6.0 74 2.1 WSW 17 22 9 12 1021.3 1021.4 3.0
27/08:00am 10.2 5.5 6.1 76 1.9 SW 20 26 11 14 1020.6 1020.7 3.0
27/07:30am 9.9 5.3 5.5 74 2.0 WSW 19 24 10 13 1020.1 1020.2 3.0
27/07:00am 9.9 5.2 5.3 73 2.1 WSW 19 24 10 13 1019.6 1019.7 3.0
27/06:30am 10.3 5.0 5.2 70 2.3 WSW 22 30 12 16 1018.7 1018.8 3.0
27/06:00am 10.3 4.8 5.7 73 2.1 WSW 24 30 13 16 1018.2 1018.2 3.0
27/05:30am 10.2 4.7 6.1 76 1.9 WSW 24 33 13 18 1017.5 1017.5 3.0
27/05:00am 10.2 3.7 6.6 78 1.7 WSW 30 39 16 21 1016.5 1016.5 3.0
27/04:30am 10.6 4.6 7.0 78 1.7 WSW 28 39 15 21 1016.1 1016.1 3.0
27/04:00am 10.3 5.0 6.7 78 1.7 WSW 24 32 13 17 1015.6 1015.6 3.0
27/03:30am 10.2 4.5 6.8 79 1.6 WSW 26 35 14 19 1015.0 1015.0 3.0
27/03:00am 10.7 4.6 6.4 75 2.0 WSW 28 33 15 18 1014.9 1014.9 3.0
27/02:30am 10.9 5.6 6.7 75 2.0 WSW 24 39 13 21 1014.5 1014.5 3.0
27/02:00am 10.7 5.3 6.2 74 2.1 WSW 24 32 13 17 1013.8 1013.8 3.0
27/01:30am 10.9 5.4 6.0 72 2.3 W 24 32 13 17 1013.3 1013.3 3.0
27/01:00am 10.6 5.6 6.3 75 2.0 WSW 22 33 12 18 1013.2 1013.2 3.0
27/12:30am 11.0 4.8 6.3 73 2.2 W 28 37 15 20 1012.7 1012.7 3.0
27/12:00am 11.1 5.2 6.0 71 2.4 WSW 26 35 14 19 1012.4 1012.4 3.0
 
Date/Time
CST
Temp
°C
App
Temp
°C
Dew
Point
°C
Rel
Hum
%
Delta-T
°C
Wind Press
QNH
hPa
Press
MSL
hPa
Rain since
9am
mm
Dir  Spd
km/h
Gust
km/h
Spd
kts
Gust
kts
26/11:30pm 10.7 4.1 6.2 74 2.1 WSW 30 37 16 20 1011.8 1011.8 3.0
26/11:00pm 10.7 4.9 6.4 75 2.0 WSW 26 33 14 18 1011.6 1011.6 3.0
26/10:30pm 10.6 5.5 6.1 74 2.1 W 22 30 12 16 1011.5 1011.5 3.0
26/10:00pm 11.1 5.8 5.2 67 2.7 W 22 35 12 19 1010.8 1010.9 3.0
26/09:30pm 11.8 3.0 3.8 58 3.6 WSW 39 57 21 31 1010.1 1010.2 3.0
26/09:23pm 11.5 4.3 5.0 64 3.0 WSW 32 50 17 27 1010.1 1010.2 3.0
26/09:00pm 11.0 4.7 5.8 70 2.4 W 28 41 15 22 1009.9 1010.0 3.0
26/08:30pm 11.3 3.6 5.5 67 2.7 WSW 35 52 19 28 1009.1 1009.2 3.0
26/08:24pm 11.2 4.3 6.6 73 2.2 W 32 52 17 28 1009.1 1009.2 3.0
26/08:00pm 11.5 4.7 6.7 72 2.3 W 32 44 17 24 1008.9 1009.0 3.0
26/07:51pm 11.3 5.3 7.1 75 2.0 W 28 56 15 30 1008.9 1009.0 3.0
26/07:49pm 11.3 5.3 7.1 75 2.0 W 28 56 15 30 1008.8 1008.9 3.0
26/07:30pm 10.7 6.1 8.0 83 1.3 WSW 22 32 12 17 1008.8 1008.9 3.0
26/07:00pm 10.8 6.7 8.6 86 1.1 W 20 30 11 16 1008.1 1008.2 3.0
26/06:42pm 11.0 5.0 8.8 86 1.1 WSW 30 44 16 24 1008.0 1008.1 2.8
26/06:30pm 11.4 5.6 7.9 79 1.7 WNW 28 44 15 24 1007.9 1008.0 2.2
26/06:17pm 11.5 5.6 7.4 76 2.0 WNW 28 46 15 25 1007.3 1007.4 2.2
26/06:15pm 11.4 5.5 7.5 77 1.9 WNW 28 46 15 25 1007.3 1007.4 2.2
26/06:00pm 11.1 4.5 8.7 85 1.2 NW 33 44 18 24 1007.4 1007.5 2.2
26/05:53pm 11.2 4.2 8.4 83 1.4 NW 35 43 19 23 1007.0 1007.1 2.0
26/05:40pm 10.8 4.4 8.4 85 1.2 NNW 32 44 17 24 1006.6 1006.7 1.4
26/05:30pm 10.8 4.3 8.1 83 1.3 NNW 32 44 17 24 1006.7 1006.8 1.0
26/05:29pm 10.7 4.2 8.3 85 1.2 NNW 32 41 17 22 1006.7 1006.8 1.0
26/05:00pm 11.4 4.6 7.0 74 2.1 NNW 32 50 17 27 1007.1 1007.2 0.2
26/04:58pm 11.4 5.4 7.0 74 2.1 NNW 28 46 15 25 1007.1 1007.2 0.2
26/04:30pm 11.5 4.4 6.2 70 2.5 NW 33 44 18 24 1007.6 1007.7 0.0
26/04:02pm 11.3 4.2 6.2 71 2.4 NNW 33 52 18 28 1009.0 1009.1 0.0
26/04:00pm 11.4 4.5 6.6 72 2.3 NNW 32 44 17 24 1008.9 1009.0 0.0
26/03:30pm 11.7 5.7 6.9 72 2.3 NNW 28 37 15 20 1009.1 1009.2 0.0
26/03:00pm 11.9 5.6 5.9 66 2.8 NW 28 44 15 24 1010.1 1010.2 0.0
26/02:36pm 13.1 6.8 5.9 61 3.4 NNW 28 48 15 26 1010.4 1010.5 0.0
26/02:30pm 12.7 7.3 6.2 64 3.1 NNW 24 37 13 20 1010.6 1010.7 0.0
26/02:00pm 13.4 7.4 5.3 58 3.8 NW 26 44 14 24 1011.3 1011.3 0.0
26/01:30pm 12.2 5.5 3.4 55 3.9 NW 28 41 15 22 1011.8 1011.8 0.0
26/01:08pm 12.2 5.0 2.9 53 4.1 NW 30 48 16 26 1012.1 1012.1 0.0
26/01:00pm 12.1 3.8 2.4 51 4.2 NW 35 48 19 26 1012.3 1012.3 0.0
26/12:30pm 12.2 5.9 3.7 56 3.8 NW 26 35 14 19 1013.1 1013.1 0.0
26/12:00pm 11.8 7.0 4.8 62 3.2 NNW 19 26 10 14 1013.7 1013.7 0.0
26/11:30am 10.9 5.9 4.7 65 2.8 NNW 20 28 11 15 1014.6 1014.6 0.0
26/11:00am 10.0 5.9 6.1 77 1.8 NNW 17 22 9 12 1014.8 1014.8 0.0
26/10:30am 9.9 4.2 6.7 80 1.5 N 26 32 14 17 1015.1 1015.1 0.0
26/10:00am 10.2 5.9 6.8 79 1.6 N 19 24 10 13 1015.2 1015.2 0.0
26/09:30am 10.1 5.5 6.7 79 1.6 NNW 20 26 11 14 1015.5 1015.5 0.0
26/09:00am 8.1 3.6 6.1 87 0.9 N 19 20 10 11 1015.2 1015.2 0.6
26/08:30am 6.2 2.9 4.8 91 0.6 N 11 15 6 8 1015.6 1015.6 0.6
26/08:00am 4.1 1.3 3.1 93 0.4 N 7 7 4 4 1015.8 1015.8 0.6
26/07:30am 4.3 0.3 3.1 92 0.5 N 13 15 7 8 1016.0 1016.0 0.6
26/07:00am 4.9 1.0 3.5 91 0.6 NNW 13 15 7 8 1016.0 1016.0 0.6
26/06:30am 5.2 1.8 3.8 91 0.6 N 11 13 6 7 1015.8 1015.8 0.6
26/06:00am 7.8 5.0 5.1 83 1.2 WNW 9 11 5 6 1015.7 1015.7 0.6
26/05:30am 7.6 4.4 5.1 84 1.1 W 11 13 6 7 1015.7 1015.7 0.6
26/05:00am 7.2 4.3 4.9 85 1.0 W 9 11 5 6 1015.6 1015.6 0.6
26/04:30am 8.1 4.5 5.2 82 1.3 WNW 13 17 7 9 1015.5 1015.5 0.6
26/04:00am 8.0 4.0 5.1 82 1.3 WNW 15 20 8 11 1015.6 1015.6 0.6
26/03:30am 7.3 4.4 4.8 84 1.1 WNW 9 11 5 6 1015.9 1015.9 0.4
26/03:00am 7.4 4.1 4.7 83 1.2 WNW 11 15 6 8 1015.9 1015.9 0.4
26/02:30am 8.0 3.9 4.6 79 1.5 W 15 20 8 11 1016.3 1016.3 0.4
26/02:00am 5.6 2.4 2.9 83 1.1 NW 9 11 5 6 1016.2 1016.2 0.4
26/01:30am 7.0 3.5 3.5 78 1.5 WNW 11 15 6 8 1016.4 1016.4 0.4
26/01:00am 7.0 3.5 3.5 78 1.5 WNW 11 15 6 8 1016.4 1016.4 0.4
26/12:30am 6.7 3.1 2.9 77 1.6 NW 11 13 6 7 1016.2 1016.2 0.4
26/12:00am 6.1 2.4 2.2 76 1.6 NW 11 17 6 9 1016.4 1016.4 0.4
 
Date/Time
CST
Temp
°C
App
Temp
°C
Dew
Point
°C
Rel
Hum
%
Delta-T
°C
Wind Press
QNH
hPa
Press
MSL
hPa
Rain since
9am
mm
Dir  Spd
km/h
Gust
km/h
Spd
kts
Gust
kts
25/11:30pm 5.0 1.7 2.5 84 1.0 N 9 11 5 6 1016.6 1016.6 0.4
25/11:00pm 5.8 2.5 2.4 79 1.4 N 9 13 5 7 1016.6 1016.6 0.4
25/10:30pm 8.0 4.7 2.5 68 2.3 W 9 13 5 7 1016.2 1016.2 0.4
25/10:00pm 8.7 4.6 2.5 65 2.6 W 13 17 7 9 1016.0 1016.0 0.4
25/09:30pm 9.4 4.2 2.6 62 2.9 W 19 24 10 13 1016.1 1016.1 0.4
25/09:00pm 9.5 5.1 2.7 62 2.9 W 15 24 8 13 1015.8 1015.8 0.4
25/08:30pm 9.7 5.0 3.2 64 2.8 WSW 17 22 9 12 1015.4 1015.4 0.4
25/08:00pm 9.7 4.1 3.5 65 2.7 WSW 22 32 12 17 1014.9 1014.9 0.4
25/07:30pm 10.1 4.8 5.0 70 2.3 WSW 22 33 12 18 1014.4 1014.4 0.4
25/07:00pm 10.5 4.3 6.2 75 2.0 W 28 37 15 20 1014.0 1014.0 0.4
25/06:30pm 10.2 4.6 7.0 80 1.5 WSW 26 33 14 18 1013.4 1013.4 0.4
25/06:00pm 11.1 4.0 6.2 72 2.3 W 33 46 18 25 1012.9 1012.9 0.4
25/05:30pm 11.2 4.4 7.0 75 2.0 WSW 32 43 17 23 1012.3 1012.3 0.4
25/05:19pm 11.1 4.6 8.0 81 1.5 WSW 32 44 17 24 1012.2 1012.2 0.4
25/05:01pm 11.3 5.5 9.3 87 1.0 WSW 30 39 16 21 1012.0 1012.0 0.2
25/05:00pm 11.3 5.5 9.3 87 1.0 WSW 30 39 16 21 1012.0 1012.0 0.2
25/04:30pm 12.1 4.8 8.9 81 1.6 WSW 37 50 20 27 1011.3 1011.3 0.0
25/04:00pm 13.0 4.5 8.6 74 2.2 W 43 61 23 33 1010.7 1010.8 0.0
25/03:30pm 13.7 6.8 9.0 73 2.4 WNW 35 57 19 31 1009.8 1009.9 0.0
25/03:00pm 14.2 5.4 8.2 67 3.0 WNW 44 70 24 38 1010.2 1010.3 0.0
25/02:30pm 14.2 7.5 8.2 67 3.0 WNW 33 59 18 32 1010.0 1010.1 0.0

Latest Capital City Observations: Canberra | Sydney | Melbourne | Brisbane | Adelaide | Perth | Hobart | Darwin

Other Formats:

Comma delimited format used in spreadsheet applications
http://www.bom.gov.au/fwo/IDS60901/IDS60901.95818.axf

JavaScript Object Notation format (JSON) in row-major order
http://www.bom.gov.au/fwo/IDS60901/IDS60901.95818.json